sensor_id;sensor_type;location;lat;lon;timestamp;P1;durP1;ratioP1;P2;durP2;ratioP2
34767;SDS011;21755;43.608;1.236;2022-12-07T00:00:55;38.40;;;20.27;;
34767;SDS011;21755;43.608;1.236;2022-12-07T00:03:29;38.22;;;19.80;;
34767;SDS011;21755;43.608;1.236;2022-12-07T00:05:57;40.45;;;19.20;;
34767;SDS011;21755;43.608;1.236;2022-12-07T00:08:23;30.85;;;16.88;;
34767;SDS011;21755;43.608;1.236;2022-12-07T00:10:49;32.03;;;15.50;;
34767;SDS011;21755;43.608;1.236;2022-12-07T00:13:15;29.23;;;15.50;;
34767;SDS011;21755;43.608;1.236;2022-12-07T00:15:41;29.50;;;16.00;;
34767;SDS011;21755;43.608;1.236;2022-12-07T00:18:07;37.97;;;19.05;;
34767;SDS011;21755;43.608;1.236;2022-12-07T00:20:33;33.83;;;17.17;;
34767;SDS011;21755;43.608;1.236;2022-12-07T00:22:59;32.35;;;16.27;;
34767;SDS011;21755;43.608;1.236;2022-12-07T00:25:25;28.73;;;15.15;;
34767;SDS011;21755;43.608;1.236;2022-12-07T00:27:54;32.15;;;15.43;;
34767;SDS011;21755;43.608;1.236;2022-12-07T00:30:22;26.85;;;14.73;;
34767;SDS011;21755;43.608;1.236;2022-12-07T00:32:48;32.65;;;16.10;;
34767;SDS011;21755;43.608;1.236;2022-12-07T00:35:15;37.42;;;17.23;;
34767;SDS011;21755;43.608;1.236;2022-12-07T00:37:41;35.97;;;17.58;;
34767;SDS011;21755;43.608;1.236;2022-12-07T00:40:07;30.50;;;17.00;;
34767;SDS011;21755;43.608;1.236;2022-12-07T00:42:33;40.65;;;19.55;;
34767;SDS011;21755;43.608;1.236;2022-12-07T00:44:59;37.47;;;17.65;;
34767;SDS011;21755;43.608;1.236;2022-12-07T00:47:25;47.90;;;20.63;;
34767;SDS011;21755;43.608;1.236;2022-12-07T00:49:51;39.45;;;20.50;;
34767;SDS011;21755;43.608;1.236;2022-12-07T00:52:17;39.83;;;19.48;;
34767;SDS011;21755;43.608;1.236;2022-12-07T00:54:42;35.03;;;18.33;;
34767;SDS011;21755;43.608;1.236;2022-12-07T00:57:08;34.33;;;17.55;;
34767;SDS011;21755;43.608;1.236;2022-12-07T00:59:34;34.05;;;17.92;;
34767;SDS011;21755;43.608;1.236;2022-12-07T01:02:00;32.95;;;17.83;;
34767;SDS011;21755;43.608;1.236;2022-12-07T01:04:26;38.38;;;17.52;;
34767;SDS011;21755;43.608;1.236;2022-12-07T01:06:52;41.70;;;19.77;;
34767;SDS011;21755;43.608;1.236;2022-12-07T01:09:18;37.25;;;18.88;;
34767;SDS011;21755;43.608;1.236;2022-12-07T01:11:44;45.15;;;19.48;;
34767;SDS011;21755;43.608;1.236;2022-12-07T01:14:09;43.25;;;19.42;;
34767;SDS011;21755;43.608;1.236;2022-12-07T01:16:35;48.25;;;19.55;;
34767;SDS011;21755;43.608;1.236;2022-12-07T01:19:03;41.92;;;19.33;;
34767;SDS011;21755;43.608;1.236;2022-12-07T01:21:30;59.75;;;21.60;;
34767;SDS011;21755;43.608;1.236;2022-12-07T01:24:00;59.33;;;23.65;;
34767;SDS011;21755;43.608;1.236;2022-12-07T01:26:26;59.28;;;21.95;;
34767;SDS011;21755;43.608;1.236;2022-12-07T01:28:52;41.35;;;16.73;;
34767;SDS011;21755;43.608;1.236;2022-12-07T01:31:20;36.85;;;16.00;;
34767;SDS011;21755;43.608;1.236;2022-12-07T01:33:52;44.15;;;16.83;;
34767;SDS011;21755;43.608;1.236;2022-12-07T01:36:31;34.95;;;15.63;;
34767;SDS011;21755;43.608;1.236;2022-12-07T01:39:00;37.72;;;16.45;;
34767;SDS011;21755;43.608;1.236;2022-12-07T01:41:29;31.17;;;14.35;;
34767;SDS011;21755;43.608;1.236;2022-12-07T01:46:44;36.13;;;14.55;;
34767;SDS011;21755;43.608;1.236;2022-12-07T01:49:20;31.77;;;13.02;;
34767;SDS011;21755;43.608;1.236;2022-12-07T01:51:52;25.98;;;12.00;;
34767;SDS011;21755;43.608;1.236;2022-12-07T01:54:23;26.13;;;12.40;;
34767;SDS011;21755;43.608;1.236;2022-12-07T01:56:51;21.08;;;11.15;;
34767;SDS011;21755;43.608;1.236;2022-12-07T01:59:20;36.40;;;14.63;;
34767;SDS011;21755;43.608;1.236;2022-12-07T02:01:50;33.78;;;13.20;;
34767;SDS011;21755;43.608;1.236;2022-12-07T02:04:17;31.15;;;12.43;;
34767;SDS011;21755;43.608;1.236;2022-12-07T02:06:43;31.42;;;13.32;;
34767;SDS011;21755;43.608;1.236;2022-12-07T02:09:11;27.70;;;11.95;;
34767;SDS011;21755;43.608;1.236;2022-12-07T02:11:38;30.45;;;12.23;;
34767;SDS011;21755;43.608;1.236;2022-12-07T02:14:05;22.10;;;10.02;;
34767;SDS011;21755;43.608;1.236;2022-12-07T02:16:34;21.33;;;9.13;;
34767;SDS011;21755;43.608;1.236;2022-12-07T02:28:10;15.90;;;8.68;;
34767;SDS011;21755;43.608;1.236;2022-12-07T02:30:58;26.92;;;10.43;;
34767;SDS011;21755;43.608;1.236;2022-12-07T02:33:42;29.33;;;10.13;;
34767;SDS011;21755;43.608;1.236;2022-12-07T02:39:15;16.80;;;7.35;;
34767;SDS011;21755;43.608;1.236;2022-12-07T02:41:51;10.68;;;6.40;;
34767;SDS011;21755;43.608;1.236;2022-12-07T02:44:22;15.02;;;7.13;;
34767;SDS011;21755;43.608;1.236;2022-12-07T02:46:54;17.90;;;7.80;;
34767;SDS011;21755;43.608;1.236;2022-12-07T02:49:27;20.60;;;8.77;;
34767;SDS011;21755;43.608;1.236;2022-12-07T02:51:54;10.75;;;6.43;;
34767;SDS011;21755;43.608;1.236;2022-12-07T02:54:20;13.27;;;6.97;;
34767;SDS011;21755;43.608;1.236;2022-12-07T03:00:08;15.15;;;6.60;;
34767;SDS011;21755;43.608;1.236;2022-12-07T03:05:48;10.57;;;6.15;;
34767;SDS011;21755;43.608;1.236;2022-12-07T03:13:23;13.68;;;6.97;;
34767;SDS011;21755;43.608;1.236;2022-12-07T03:21:32;15.45;;;7.40;;
34767;SDS011;21755;43.608;1.236;2022-12-07T03:24:04;17.05;;;8.27;;
34767;SDS011;21755;43.608;1.236;2022-12-07T03:26:40;14.00;;;6.90;;
34767;SDS011;21755;43.608;1.236;2022-12-07T03:29:14;18.17;;;7.65;;
34767;SDS011;21755;43.608;1.236;2022-12-07T03:31:46;18.08;;;8.38;;
34767;SDS011;21755;43.608;1.236;2022-12-07T03:34:33;12.07;;;6.85;;
34767;SDS011;21755;43.608;1.236;2022-12-07T03:37:04;18.63;;;8.15;;
34767;SDS011;21755;43.608;1.236;2022-12-07T03:42:07;14.27;;;7.53;;
34767;SDS011;21755;43.608;1.236;2022-12-07T03:44:36;14.10;;;7.05;;
34767;SDS011;21755;43.608;1.236;2022-12-07T03:52:24;18.02;;;8.00;;
34767;SDS011;21755;43.608;1.236;2022-12-07T03:55:09;18.00;;;7.72;;
34767;SDS011;21755;43.608;1.236;2022-12-07T03:57:49;14.25;;;7.57;;
34767;SDS011;21755;43.608;1.236;2022-12-07T04:00:18;18.77;;;7.82;;
34767;SDS011;21755;43.608;1.236;2022-12-07T04:02:44;21.38;;;8.27;;
34767;SDS011;21755;43.608;1.236;2022-12-07T04:05:11;13.95;;;6.63;;
34767;SDS011;21755;43.608;1.236;2022-12-07T04:07:37;11.48;;;5.50;;
34767;SDS011;21755;43.608;1.236;2022-12-07T04:10:03;8.68;;;5.63;;
34767;SDS011;21755;43.608;1.236;2022-12-07T04:12:29;10.85;;;4.70;;
34767;SDS011;21755;43.608;1.236;2022-12-07T04:14:55;7.05;;;4.75;;
34767;SDS011;21755;43.608;1.236;2022-12-07T04:17:21;7.28;;;3.10;;
34767;SDS011;21755;43.608;1.236;2022-12-07T04:19:47;7.00;;;3.40;;
34767;SDS011;21755;43.608;1.236;2022-12-07T04:22:13;5.00;;;3.15;;
34767;SDS011;21755;43.608;1.236;2022-12-07T04:24:39;7.57;;;3.40;;
34767;SDS011;21755;43.608;1.236;2022-12-07T04:27:05;5.90;;;3.42;;
34767;SDS011;21755;43.608;1.236;2022-12-07T04:29:31;7.25;;;3.47;;
34767;SDS011;21755;43.608;1.236;2022-12-07T04:31:57;7.90;;;3.53;;
34767;SDS011;21755;43.608;1.236;2022-12-07T04:34:22;7.78;;;3.45;;
34767;SDS011;21755;43.608;1.236;2022-12-07T04:36:48;9.88;;;4.05;;
34767;SDS011;21755;43.608;1.236;2022-12-07T04:39:21;9.07;;;3.70;;
34767;SDS011;21755;43.608;1.236;2022-12-07T04:41:52;11.80;;;3.75;;
34767;SDS011;21755;43.608;1.236;2022-12-07T04:44:18;6.25;;;4.03;;
34767;SDS011;21755;43.608;1.236;2022-12-07T04:46:45;6.53;;;3.85;;
34767;SDS011;21755;43.608;1.236;2022-12-07T04:49:12;8.10;;;4.22;;
34767;SDS011;21755;43.608;1.236;2022-12-07T04:51:39;7.20;;;4.53;;
34767;SDS011;21755;43.608;1.236;2022-12-07T04:54:05;10.80;;;4.95;;
34767;SDS011;21755;43.608;1.236;2022-12-07T04:56:31;13.32;;;4.60;;
34767;SDS011;21755;43.608;1.236;2022-12-07T04:58:59;8.63;;;4.88;;
34767;SDS011;21755;43.608;1.236;2022-12-07T05:01:25;9.23;;;4.95;;
34767;SDS011;21755;43.608;1.236;2022-12-07T05:03:52;6.10;;;4.25;;
34767;SDS011;21755;43.608;1.236;2022-12-07T05:06:18;7.97;;;4.20;;
34767;SDS011;21755;43.608;1.236;2022-12-07T05:08:44;7.80;;;4.53;;
34767;SDS011;21755;43.608;1.236;2022-12-07T05:11:11;9.68;;;4.68;;
34767;SDS011;21755;43.608;1.236;2022-12-07T05:13:58;8.80;;;4.60;;
34767;SDS011;21755;43.608;1.236;2022-12-07T05:16:24;8.55;;;4.53;;
34767;SDS011;21755;43.608;1.236;2022-12-07T05:18:50;6.97;;;4.13;;
34767;SDS011;21755;43.608;1.236;2022-12-07T05:21:16;10.48;;;5.30;;
34767;SDS011;21755;43.608;1.236;2022-12-07T05:23:41;9.43;;;5.22;;
34767;SDS011;21755;43.608;1.236;2022-12-07T05:26:07;12.60;;;5.38;;
34767;SDS011;21755;43.608;1.236;2022-12-07T05:28:33;11.48;;;5.25;;
34767;SDS011;21755;43.608;1.236;2022-12-07T05:30:59;14.65;;;6.57;;
34767;SDS011;21755;43.608;1.236;2022-12-07T05:33:25;14.73;;;6.78;;
34767;SDS011;21755;43.608;1.236;2022-12-07T05:35:51;10.35;;;5.68;;
34767;SDS011;21755;43.608;1.236;2022-12-07T05:38:17;20.60;;;9.95;;
34767;SDS011;21755;43.608;1.236;2022-12-07T05:40:43;23.48;;;11.02;;
34767;SDS011;21755;43.608;1.236;2022-12-07T05:43:08;27.40;;;11.73;;
34767;SDS011;21755;43.608;1.236;2022-12-07T05:45:35;24.70;;;11.82;;
34767;SDS011;21755;43.608;1.236;2022-12-07T05:48:01;29.50;;;13.70;;
34767;SDS011;21755;43.608;1.236;2022-12-07T05:50:27;30.25;;;13.07;;
34767;SDS011;21755;43.608;1.236;2022-12-07T05:52:53;29.38;;;12.95;;
34767;SDS011;21755;43.608;1.236;2022-12-07T05:55:19;30.58;;;13.73;;
34767;SDS011;21755;43.608;1.236;2022-12-07T05:57:45;23.88;;;11.05;;
34767;SDS011;21755;43.608;1.236;2022-12-07T06:00:31;25.08;;;11.00;;
34767;SDS011;21755;43.608;1.236;2022-12-07T06:02:57;18.75;;;10.30;;
34767;SDS011;21755;43.608;1.236;2022-12-07T06:05:23;22.83;;;10.70;;
34767;SDS011;21755;43.608;1.236;2022-12-07T06:07:49;19.80;;;10.20;;
34767;SDS011;21755;43.608;1.236;2022-12-07T06:10:15;19.65;;;8.18;;
34767;SDS011;21755;43.608;1.236;2022-12-07T06:12:41;19.65;;;10.07;;
34767;SDS011;21755;43.608;1.236;2022-12-07T06:15:08;22.73;;;10.80;;
34767;SDS011;21755;43.608;1.236;2022-12-07T06:17:35;20.52;;;11.00;;
34767;SDS011;21755;43.608;1.236;2022-12-07T06:20:02;21.33;;;11.15;;
34767;SDS011;21755;43.608;1.236;2022-12-07T06:22:28;23.50;;;10.77;;
34767;SDS011;21755;43.608;1.236;2022-12-07T06:24:54;26.73;;;11.55;;
34767;SDS011;21755;43.608;1.236;2022-12-07T06:27:20;21.70;;;11.15;;
34767;SDS011;21755;43.608;1.236;2022-12-07T06:29:46;18.60;;;9.80;;
34767;SDS011;21755;43.608;1.236;2022-12-07T06:32:12;21.25;;;9.88;;
34767;SDS011;21755;43.608;1.236;2022-12-07T06:34:38;14.18;;;7.40;;
34767;SDS011;21755;43.608;1.236;2022-12-07T06:37:04;16.80;;;8.73;;
34767;SDS011;21755;43.608;1.236;2022-12-07T06:39:30;17.92;;;8.35;;
34767;SDS011;21755;43.608;1.236;2022-12-07T06:41:56;14.23;;;7.40;;
34767;SDS011;21755;43.608;1.236;2022-12-07T06:44:22;15.23;;;7.68;;
34767;SDS011;21755;43.608;1.236;2022-12-07T06:46:49;13.65;;;7.57;;
34767;SDS011;21755;43.608;1.236;2022-12-07T06:49:15;14.63;;;7.63;;
34767;SDS011;21755;43.608;1.236;2022-12-07T06:51:42;14.10;;;7.88;;
34767;SDS011;21755;43.608;1.236;2022-12-07T06:54:08;13.20;;;7.25;;
34767;SDS011;21755;43.608;1.236;2022-12-07T06:56:35;12.27;;;6.57;;
34767;SDS011;21755;43.608;1.236;2022-12-07T06:59:01;13.00;;;7.35;;
34767;SDS011;21755;43.608;1.236;2022-12-07T07:01:28;13.57;;;7.13;;
34767;SDS011;21755;43.608;1.236;2022-12-07T07:03:54;16.15;;;7.25;;
34767;SDS011;21755;43.608;1.236;2022-12-07T07:06:20;13.07;;;7.55;;
34767;SDS011;21755;43.608;1.236;2022-12-07T07:08:46;13.23;;;7.03;;
34767;SDS011;21755;43.608;1.236;2022-12-07T07:11:12;16.35;;;7.72;;
34767;SDS011;21755;43.608;1.236;2022-12-07T07:13:38;20.20;;;8.75;;
34767;SDS011;21755;43.608;1.236;2022-12-07T07:16:04;14.82;;;8.15;;
34767;SDS011;21755;43.608;1.236;2022-12-07T07:18:31;18.45;;;8.60;;
34767;SDS011;21755;43.608;1.236;2022-12-07T07:20:57;15.50;;;7.53;;
34767;SDS011;21755;43.608;1.236;2022-12-07T07:23:23;14.15;;;8.38;;
34767;SDS011;21755;43.608;1.236;2022-12-07T07:25:49;18.15;;;8.63;;
34767;SDS011;21755;43.608;1.236;2022-12-07T07:28:16;22.45;;;10.60;;
34767;SDS011;21755;43.608;1.236;2022-12-07T07:30:42;36.03;;;13.57;;
34767;SDS011;21755;43.608;1.236;2022-12-07T07:33:08;46.35;;;20.33;;
34767;SDS011;21755;43.608;1.236;2022-12-07T07:35:35;67.72;;;29.33;;
34767;SDS011;21755;43.608;1.236;2022-12-07T07:38:01;59.22;;;27.40;;
34767;SDS011;21755;43.608;1.236;2022-12-07T07:40:28;50.53;;;24.50;;
34767;SDS011;21755;43.608;1.236;2022-12-07T07:42:55;50.90;;;24.38;;
34767;SDS011;21755;43.608;1.236;2022-12-07T07:45:22;54.72;;;23.65;;
34767;SDS011;21755;43.608;1.236;2022-12-07T07:47:49;54.55;;;24.02;;
34767;SDS011;21755;43.608;1.236;2022-12-07T07:50:16;15.10;;;6.82;;
34767;SDS011;21755;43.608;1.236;2022-12-07T07:52:43;15.30;;;7.00;;
34767;SDS011;21755;43.608;1.236;2022-12-07T07:55:10;41.60;;;19.40;;
34767;SDS011;21755;43.608;1.236;2022-12-07T07:57:36;42.00;;;17.98;;
34767;SDS011;21755;43.608;1.236;2022-12-07T08:00:04;39.75;;;17.25;;
34767;SDS011;21755;43.608;1.236;2022-12-07T08:02:35;35.10;;;17.42;;
34767;SDS011;21755;43.608;1.236;2022-12-07T08:05:01;35.28;;;17.42;;
34767;SDS011;21755;43.608;1.236;2022-12-07T08:07:27;31.88;;;15.63;;
34767;SDS011;21755;43.608;1.236;2022-12-07T08:09:53;39.85;;;17.33;;
34767;SDS011;21755;43.608;1.236;2022-12-07T08:12:19;34.28;;;16.40;;
34767;SDS011;21755;43.608;1.236;2022-12-07T08:17:22;52.58;;;24.23;;
34767;SDS011;21755;43.608;1.236;2022-12-07T08:19:48;49.88;;;23.63;;
34767;SDS011;21755;43.608;1.236;2022-12-07T08:22:14;48.28;;;21.58;;
34767;SDS011;21755;43.608;1.236;2022-12-07T08:24:40;44.28;;;20.60;;
34767;SDS011;21755;43.608;1.236;2022-12-07T08:27:06;37.35;;;18.58;;
34767;SDS011;21755;43.608;1.236;2022-12-07T08:29:32;30.70;;;15.98;;
34767;SDS011;21755;43.608;1.236;2022-12-07T08:31:58;28.25;;;16.45;;
34767;SDS011;21755;43.608;1.236;2022-12-07T08:34:25;28.73;;;14.52;;
34767;SDS011;21755;43.608;1.236;2022-12-07T08:36:51;24.05;;;13.63;;
34767;SDS011;21755;43.608;1.236;2022-12-07T08:39:17;22.92;;;11.23;;
34767;SDS011;21755;43.608;1.236;2022-12-07T08:41:43;15.65;;;9.35;;
34767;SDS011;21755;43.608;1.236;2022-12-07T08:44:09;16.20;;;9.15;;
34767;SDS011;21755;43.608;1.236;2022-12-07T08:46:51;19.83;;;7.57;;
34767;SDS011;21755;43.608;1.236;2022-12-07T08:49:30;13.23;;;7.85;;
34767;SDS011;21755;43.608;1.236;2022-12-07T08:52:06;14.63;;;8.10;;
34767;SDS011;21755;43.608;1.236;2022-12-07T08:54:33;17.50;;;8.93;;
34767;SDS011;21755;43.608;1.236;2022-12-07T08:57:01;14.93;;;7.47;;
34767;SDS011;21755;43.608;1.236;2022-12-07T08:59:28;16.38;;;8.63;;
34767;SDS011;21755;43.608;1.236;2022-12-07T09:01:54;13.75;;;8.45;;
34767;SDS011;21755;43.608;1.236;2022-12-07T09:04:20;14.35;;;7.43;;
34767;SDS011;21755;43.608;1.236;2022-12-07T09:06:46;16.63;;;8.77;;
34767;SDS011;21755;43.608;1.236;2022-12-07T09:09:13;15.88;;;8.88;;
34767;SDS011;21755;43.608;1.236;2022-12-07T09:11:39;14.80;;;8.68;;
34767;SDS011;21755;43.608;1.236;2022-12-07T09:14:05;16.67;;;8.35;;
34767;SDS011;21755;43.608;1.236;2022-12-07T09:16:31;16.17;;;8.57;;
34767;SDS011;21755;43.608;1.236;2022-12-07T09:18:57;17.77;;;9.55;;
34767;SDS011;21755;43.608;1.236;2022-12-07T09:21:23;19.08;;;8.95;;
34767;SDS011;21755;43.608;1.236;2022-12-07T09:23:49;16.80;;;8.25;;
34767;SDS011;21755;43.608;1.236;2022-12-07T09:26:15;15.52;;;8.10;;
34767;SDS011;21755;43.608;1.236;2022-12-07T09:28:41;14.55;;;8.23;;
34767;SDS011;21755;43.608;1.236;2022-12-07T09:31:06;16.27;;;8.82;;
34767;SDS011;21755;43.608;1.236;2022-12-07T09:33:32;27.38;;;9.07;;
34767;SDS011;21755;43.608;1.236;2022-12-07T09:35:58;16.20;;;8.77;;
34767;SDS011;21755;43.608;1.236;2022-12-07T09:38:24;18.73;;;9.68;;
34767;SDS011;21755;43.608;1.236;2022-12-07T09:40:51;16.23;;;8.85;;
34767;SDS011;21755;43.608;1.236;2022-12-07T09:43:20;19.35;;;9.80;;
34767;SDS011;21755;43.608;1.236;2022-12-07T09:45:48;20.10;;;9.95;;
34767;SDS011;21755;43.608;1.236;2022-12-07T09:48:21;16.17;;;9.07;;
34767;SDS011;21755;43.608;1.236;2022-12-07T09:50:54;17.27;;;9.43;;
34767;SDS011;21755;43.608;1.236;2022-12-07T09:53:36;18.85;;;9.73;;
34767;SDS011;21755;43.608;1.236;2022-12-07T09:56:03;23.48;;;11.07;;
34767;SDS011;21755;43.608;1.236;2022-12-07T09:58:30;18.80;;;10.82;;
34767;SDS011;21755;43.608;1.236;2022-12-07T10:01:09;16.90;;;9.45;;
34767;SDS011;21755;43.608;1.236;2022-12-07T10:03:39;19.25;;;10.40;;
34767;SDS011;21755;43.608;1.236;2022-12-07T10:06:10;19.23;;;11.18;;
34767;SDS011;21755;43.608;1.236;2022-12-07T10:08:38;16.70;;;10.23;;
34767;SDS011;21755;43.608;1.236;2022-12-07T10:11:06;18.52;;;10.98;;
34767;SDS011;21755;43.608;1.236;2022-12-07T10:13:39;15.70;;;10.02;;
34767;SDS011;21755;43.608;1.236;2022-12-07T10:16:27;15.70;;;9.65;;
34767;SDS011;21755;43.608;1.236;2022-12-07T10:18:57;15.27;;;9.73;;
34767;SDS011;21755;43.608;1.236;2022-12-07T10:22:30;16.60;;;8.90;;
34767;SDS011;21755;43.608;1.236;2022-12-07T10:24:37;14.82;;;8.20;;
34767;SDS011;21755;43.608;1.236;2022-12-07T10:27:30;17.58;;;9.70;;
34767;SDS011;21755;43.608;1.236;2022-12-07T10:29:57;13.20;;;8.00;;
34767;SDS011;21755;43.608;1.236;2022-12-07T10:32:27;15.68;;;8.82;;
34767;SDS011;21755;43.608;1.236;2022-12-07T10:35:18;14.02;;;7.97;;
34767;SDS011;21755;43.608;1.236;2022-12-07T10:37:49;13.10;;;7.32;;
34767;SDS011;21755;43.608;1.236;2022-12-07T10:40:25;13.82;;;7.32;;
34767;SDS011;21755;43.608;1.236;2022-12-07T10:45:54;12.63;;;7.85;;
34767;SDS011;21755;43.608;1.236;2022-12-07T10:48:48;11.48;;;7.03;;
34767;SDS011;21755;43.608;1.236;2022-12-07T10:51:43;13.60;;;6.65;;
34767;SDS011;21755;43.608;1.236;2022-12-07T10:57:37;14.48;;;7.70;;
34767;SDS011;21755;43.608;1.236;2022-12-07T11:13:29;11.43;;;5.95;;
34767;SDS011;21755;43.608;1.236;2022-12-07T11:18:43;11.48;;;6.57;;
34767;SDS011;21755;43.608;1.236;2022-12-07T11:27:13;12.15;;;6.43;;
34767;SDS011;21755;43.608;1.236;2022-12-07T11:30:02;13.75;;;6.88;;
34767;SDS011;21755;43.608;1.236;2022-12-07T11:32:51;12.25;;;6.13;;
34767;SDS011;21755;43.608;1.236;2022-12-07T11:35:39;20.50;;;7.82;;
34767;SDS011;21755;43.608;1.236;2022-12-07T11:38:15;11.55;;;7.20;;
34767;SDS011;21755;43.608;1.236;2022-12-07T11:40:48;11.60;;;7.03;;
34767;SDS011;21755;43.608;1.236;2022-12-07T11:46:11;13.48;;;7.15;;
34767;SDS011;21755;43.608;1.236;2022-12-07T11:48:41;10.88;;;7.22;;
34767;SDS011;21755;43.608;1.236;2022-12-07T11:51:10;14.73;;;8.02;;
34767;SDS011;21755;43.608;1.236;2022-12-07T11:53:38;16.77;;;8.85;;
34767;SDS011;21755;43.608;1.236;2022-12-07T11:56:13;12.95;;;7.63;;
34767;SDS011;21755;43.608;1.236;2022-12-07T12:06:48;15.35;;;7.18;;
34767;SDS011;21755;43.608;1.236;2022-12-07T12:11:59;13.02;;;6.88;;
34767;SDS011;21755;43.608;1.236;2022-12-07T12:20:20;13.05;;;6.88;;
34767;SDS011;21755;43.608;1.236;2022-12-07T12:23:34;11.52;;;6.78;;
34767;SDS011;21755;43.608;1.236;2022-12-07T12:25:45;14.73;;;6.65;;
34767;SDS011;21755;43.608;1.236;2022-12-07T12:33:32;10.43;;;6.05;;
34767;SDS011;21755;43.608;1.236;2022-12-07T12:37:00;8.18;;;5.40;;
34767;SDS011;21755;43.608;1.236;2022-12-07T12:49:43;8.80;;;4.88;;
34767;SDS011;21755;43.608;1.236;2022-12-07T12:55:29;7.45;;;3.80;;
34767;SDS011;21755;43.608;1.236;2022-12-07T13:00:48;8.57;;;4.35;;
34767;SDS011;21755;43.608;1.236;2022-12-07T13:03:52;7.57;;;4.65;;
34767;SDS011;21755;43.608;1.236;2022-12-07T13:08:51;7.50;;;4.80;;
34767;SDS011;21755;43.608;1.236;2022-12-07T13:11:28;8.73;;;5.57;;
34767;SDS011;21755;43.608;1.236;2022-12-07T13:17:01;8.93;;;5.65;;
34767;SDS011;21755;43.608;1.236;2022-12-07T13:20:19;9.48;;;5.60;;
34767;SDS011;21755;43.608;1.236;2022-12-07T13:27:47;12.27;;;7.47;;
34767;SDS011;21755;43.608;1.236;2022-12-07T13:30:21;15.43;;;8.63;;
34767;SDS011;21755;43.608;1.236;2022-12-07T13:32:51;14.07;;;8.20;;
34767;SDS011;21755;43.608;1.236;2022-12-07T13:35:37;12.57;;;7.90;;
34767;SDS011;21755;43.608;1.236;2022-12-07T13:38:16;13.23;;;8.25;;
34767;SDS011;21755;43.608;1.236;2022-12-07T13:41:00;12.45;;;9.05;;
34767;SDS011;21755;43.608;1.236;2022-12-07T13:43:30;12.65;;;8.77;;
34767;SDS011;21755;43.608;1.236;2022-12-07T13:45:57;16.13;;;8.88;;
34767;SDS011;21755;43.608;1.236;2022-12-07T13:51:14;16.92;;;9.65;;
34767;SDS011;21755;43.608;1.236;2022-12-07T13:53:47;19.38;;;9.82;;
34767;SDS011;21755;43.608;1.236;2022-12-07T13:56:14;18.23;;;9.13;;
34767;SDS011;21755;43.608;1.236;2022-12-07T13:58:41;18.02;;;9.40;;
34767;SDS011;21755;43.608;1.236;2022-12-07T14:01:07;18.77;;;9.90;;
34767;SDS011;21755;43.608;1.236;2022-12-07T14:03:34;20.05;;;10.50;;
34767;SDS011;21755;43.608;1.236;2022-12-07T14:06:05;19.20;;;10.30;;
34767;SDS011;21755;43.608;1.236;2022-12-07T14:08:37;20.17;;;11.00;;
34767;SDS011;21755;43.608;1.236;2022-12-07T14:11:03;21.23;;;11.55;;
34767;SDS011;21755;43.608;1.236;2022-12-07T14:18:58;19.77;;;11.80;;
34767;SDS011;21755;43.608;1.236;2022-12-07T14:21:26;25.02;;;12.20;;
34767;SDS011;21755;43.608;1.236;2022-12-07T14:24:29;25.25;;;12.27;;
34767;SDS011;21755;43.608;1.236;2022-12-07T14:26:49;20.08;;;11.48;;
34767;SDS011;21755;43.608;1.236;2022-12-07T14:31:51;19.35;;;10.88;;
34767;SDS011;21755;43.608;1.236;2022-12-07T14:34:21;20.38;;;10.43;;
34767;SDS011;21755;43.608;1.236;2022-12-07T14:36:47;16.58;;;10.10;;
34767;SDS011;21755;43.608;1.236;2022-12-07T14:39:14;17.45;;;10.27;;
34767;SDS011;21755;43.608;1.236;2022-12-07T14:41:39;14.70;;;8.77;;
34767;SDS011;21755;43.608;1.236;2022-12-07T14:44:19;18.73;;;9.25;;
34767;SDS011;21755;43.608;1.236;2022-12-07T14:46:46;17.52;;;8.95;;
34767;SDS011;21755;43.608;1.236;2022-12-07T14:49:13;18.77;;;8.93;;
34767;SDS011;21755;43.608;1.236;2022-12-07T14:51:39;16.65;;;9.05;;
34767;SDS011;21755;43.608;1.236;2022-12-07T14:54:07;14.25;;;8.57;;
34767;SDS011;21755;43.608;1.236;2022-12-07T14:56:45;15.43;;;9.10;;
34767;SDS011;21755;43.608;1.236;2022-12-07T14:59:15;20.60;;;9.40;;
34767;SDS011;21755;43.608;1.236;2022-12-07T15:01:41;15.23;;;8.80;;
34767;SDS011;21755;43.608;1.236;2022-12-07T15:04:08;17.23;;;9.70;;
34767;SDS011;21755;43.608;1.236;2022-12-07T15:06:33;13.95;;;8.57;;
34767;SDS011;21755;43.608;1.236;2022-12-07T15:08:59;12.57;;;7.93;;
34767;SDS011;21755;43.608;1.236;2022-12-07T15:11:26;15.23;;;8.85;;
34767;SDS011;21755;43.608;1.236;2022-12-07T15:13:52;14.90;;;8.60;;
34767;SDS011;21755;43.608;1.236;2022-12-07T15:16:34;13.30;;;8.25;;
34767;SDS011;21755;43.608;1.236;2022-12-07T15:19:01;13.65;;;7.68;;
34767;SDS011;21755;43.608;1.236;2022-12-07T15:21:26;13.95;;;7.82;;
34767;SDS011;21755;43.608;1.236;2022-12-07T15:23:52;14.98;;;8.65;;
34767;SDS011;21755;43.608;1.236;2022-12-07T15:26:19;16.33;;;8.27;;
34767;SDS011;21755;43.608;1.236;2022-12-07T15:28:45;13.77;;;7.90;;
34767;SDS011;21755;43.608;1.236;2022-12-07T15:31:11;14.48;;;8.23;;
34767;SDS011;21755;43.608;1.236;2022-12-07T15:33:40;12.20;;;7.57;;
34767;SDS011;21755;43.608;1.236;2022-12-07T15:36:07;10.63;;;7.32;;
34767;SDS011;21755;43.608;1.236;2022-12-07T15:38:33;11.57;;;7.85;;
34767;SDS011;21755;43.608;1.236;2022-12-07T15:41:00;13.43;;;7.38;;
34767;SDS011;21755;43.608;1.236;2022-12-07T15:43:25;12.60;;;7.72;;
34767;SDS011;21755;43.608;1.236;2022-12-07T15:46:10;13.30;;;7.88;;
34767;SDS011;21755;43.608;1.236;2022-12-07T15:48:36;12.63;;;8.40;;
34767;SDS011;21755;43.608;1.236;2022-12-07T15:51:06;17.75;;;7.70;;
34767;SDS011;21755;43.608;1.236;2022-12-07T15:53:34;15.18;;;8.65;;
34767;SDS011;21755;43.608;1.236;2022-12-07T15:56:00;16.45;;;8.60;;
34767;SDS011;21755;43.608;1.236;2022-12-07T15:58:26;18.10;;;8.60;;
34767;SDS011;21755;43.608;1.236;2022-12-07T16:00:52;14.23;;;8.73;;
34767;SDS011;21755;43.608;1.236;2022-12-07T16:03:18;13.73;;;7.60;;
34767;SDS011;21755;43.608;1.236;2022-12-07T16:05:51;12.45;;;7.60;;
34767;SDS011;21755;43.608;1.236;2022-12-07T16:08:18;18.05;;;8.80;;
34767;SDS011;21755;43.608;1.236;2022-12-07T16:10:44;18.38;;;9.13;;
34767;SDS011;21755;43.608;1.236;2022-12-07T16:13:10;15.88;;;8.65;;
34767;SDS011;21755;43.608;1.236;2022-12-07T16:15:39;13.27;;;8.18;;
34767;SDS011;21755;43.608;1.236;2022-12-07T16:18:05;13.82;;;7.80;;
34767;SDS011;21755;43.608;1.236;2022-12-07T16:20:31;16.40;;;8.40;;
34767;SDS011;21755;43.608;1.236;2022-12-07T16:22:57;19.15;;;10.30;;
34767;SDS011;21755;43.608;1.236;2022-12-07T16:25:23;21.25;;;12.05;;
34767;SDS011;21755;43.608;1.236;2022-12-07T16:27:50;21.42;;;12.63;;
34767;SDS011;21755;43.608;1.236;2022-12-07T16:30:17;25.20;;;16.02;;
34767;SDS011;21755;43.608;1.236;2022-12-07T16:32:43;23.42;;;13.68;;
34767;SDS011;21755;43.608;1.236;2022-12-07T16:35:09;23.00;;;13.25;;
34767;SDS011;21755;43.608;1.236;2022-12-07T16:37:36;32.10;;;16.58;;
34767;SDS011;21755;43.608;1.236;2022-12-07T16:40:02;27.17;;;14.98;;
34767;SDS011;21755;43.608;1.236;2022-12-07T16:42:32;27.52;;;15.50;;
34767;SDS011;21755;43.608;1.236;2022-12-07T16:44:59;20.55;;;12.32;;
34767;SDS011;21755;43.608;1.236;2022-12-07T16:47:26;22.75;;;13.32;;
34767;SDS011;21755;43.608;1.236;2022-12-07T16:49:51;26.20;;;12.57;;
34767;SDS011;21755;43.608;1.236;2022-12-07T16:52:21;17.85;;;9.90;;
34767;SDS011;21755;43.608;1.236;2022-12-07T16:54:48;14.95;;;8.20;;
34767;SDS011;21755;43.608;1.236;2022-12-07T16:57:15;13.25;;;8.23;;